createdAt,value
2022-10-17T00:07:31.986Z,85.24
2022-10-17T00:17:35.707Z,86.25
2022-10-17T00:27:42.214Z,84.95
2022-10-17T00:37:45.320Z,85.46
2022-10-17T00:47:55.077Z,85.63
2022-10-17T00:57:59.046Z,85.03
2022-10-17T01:08:03.869Z,84.98
2022-10-17T01:18:17.058Z,85.07
2022-10-17T01:28:36.593Z,84.76
2022-10-17T01:38:48.299Z,84.40
2022-10-17T01:48:51.269Z,84.37
2022-10-17T01:59:01.536Z,84.08
2022-10-17T02:09:25.638Z,83.63
2022-10-17T02:19:41.665Z,84.35
2022-10-17T02:29:49.578Z,83.71
2022-10-17T02:39:56.206Z,83.64
2022-10-17T02:49:59.911Z,83.50
2022-10-17T03:00:10.028Z,83.57
2022-10-17T03:10:13.369Z,83.04
2022-10-17T03:20:17.699Z,82.90
2022-10-17T03:30:22.154Z,82.75
2022-10-17T03:40:28.522Z,82.68
2022-10-17T03:50:31.635Z,82.36
2022-10-17T04:00:38.069Z,82.25
2022-10-17T04:10:41.173Z,81.21
2022-10-17T04:20:45.507Z,81.38
2022-10-17T04:30:52.141Z,80.85
2022-10-17T04:41:00.152Z,80.96
2022-10-17T04:51:05.624Z,80.72
2022-10-17T05:01:18.237Z,80.81
2022-10-17T05:11:27.561Z,80.98
2022-10-17T05:31:36.629Z,80.73
2022-10-17T05:41:42.638Z,80.83
2022-10-17T05:51:45.659Z,80.37
2022-10-17T06:01:50.089Z,80.75
2022-10-17T06:11:53.364Z,81.06
2022-10-17T06:21:58.245Z,80.66
2022-10-17T06:32:03.326Z,80.78
2022-10-17T06:42:09.538Z,80.66
2022-10-17T06:52:32.936Z,79.59
2022-10-17T07:03:06.100Z,79.97
2022-10-17T07:13:12.846Z,78.11
2022-10-17T07:23:17.113Z,78.59
2022-10-17T07:33:20.418Z,78.37
2022-10-17T07:43:25.224Z,78.84
2022-10-17T07:53:29.430Z,78.56
2022-10-17T08:03:33.831Z,77.62
2022-10-17T08:13:37.274Z,76.66
2022-10-17T08:23:42.103Z,76.11
2022-10-17T08:33:45.206Z,76.16
2022-10-17T08:44:04.093Z,76.31
2022-10-17T08:54:15.914Z,75.72
2022-10-17T09:04:46.772Z,75.81
2022-10-17T09:15:09.593Z,75.66
2022-10-17T09:25:17.147Z,74.11
2022-10-17T09:35:21.993Z,73.45
2022-10-17T09:45:27.627Z,73.00
2022-10-17T09:55:39.667Z,73.71
2022-10-17T10:06:00.002Z,74.34
2022-10-17T10:16:17.321Z,72.02
2022-10-17T10:26:24.790Z,70.88
2022-10-17T10:36:42.939Z,69.08
2022-10-17T10:46:47.386Z,68.52
2022-10-17T10:56:54.369Z,67.90
2022-10-17T11:07:03.280Z,67.41
2022-10-17T11:17:14.088Z,67.58
2022-10-17T11:27:18.558Z,68.01
2022-10-17T11:37:24.571Z,68.77
2022-10-17T11:47:45.926Z,69.63
2022-10-17T11:57:59.429Z,69.45
2022-10-17T12:08:10.426Z,69.33
2022-10-17T12:18:18.384Z,69.78
2022-10-17T12:28:28.479Z,70.66
2022-10-17T12:38:31.385Z,71.55
2022-10-17T12:49:13.847Z,71.79
2022-10-17T12:59:22.445Z,71.09
2022-10-17T13:09:30.243Z,71.34
2022-10-17T13:19:42.046Z,71.06
2022-10-17T13:29:46.025Z,71.70
2022-10-17T13:39:55.581Z,71.44
2022-10-17T13:50:00.319Z,72.07
2022-10-17T14:00:11.798Z,71.49
2022-10-17T14:10:22.121Z,68.62
2022-10-17T14:30:57.256Z,66.12
2022-10-17T14:51:39.971Z,65.15
2022-10-17T15:01:54.818Z,64.63
2022-10-17T15:12:01.715Z,64.57
2022-10-17T15:22:05.942Z,65.12
2022-10-17T15:32:08.733Z,65.14
2022-10-17T15:42:13.087Z,64.80
2022-10-17T15:52:15.914Z,65.95
2022-10-17T16:02:22.032Z,66.25
2022-10-17T16:12:31.174Z,67.56
2022-10-17T16:22:36.935Z,68.01
2022-10-17T16:32:39.845Z,68.08
2022-10-17T16:42:44.700Z,68.13
2022-10-17T16:52:47.531Z,68.81
2022-10-17T17:02:51.799Z,69.62
2022-10-17T17:12:56.795Z,69.86
2022-10-17T17:23:00.962Z,71.36
2022-10-17T17:33:04.006Z,72.30
2022-10-17T17:43:09.155Z,73.27
2022-10-17T17:53:15.591Z,74.23
2022-10-17T18:03:23.411Z,76.05
2022-10-17T18:13:26.524Z,78.55
2022-10-17T18:23:30.853Z,78.82
2022-10-17T18:33:34.216Z,78.64
2022-10-17T18:43:40.216Z,79.23
2022-10-17T18:53:46.881Z,79.37
2022-10-17T19:03:54.413Z,79.75
2022-10-17T19:13:59.119Z,80.65
2022-10-17T19:24:05.343Z,81.59
2022-10-17T19:34:08.110Z,82.41
2022-10-17T19:44:12.801Z,81.60
2022-10-17T19:54:18.121Z,83.26
2022-10-17T20:04:23.960Z,83.27
2022-10-17T20:14:27.114Z,84.42
2022-10-17T20:24:31.430Z,85.63
2022-10-17T20:34:35.677Z,85.14
2022-10-17T20:44:40.060Z,84.24
2022-10-17T20:54:43.058Z,84.92
2022-10-17T21:04:48.092Z,84.60
2022-10-17T21:14:50.984Z,84.81
2022-10-17T21:24:55.199Z,84.66
2022-10-17T21:34:58.222Z,84.91
2022-10-17T21:45:07.468Z,85.22
2022-10-17T21:55:18.354Z,85.62
2022-10-17T22:05:22.707Z,85.61
2022-10-17T22:15:25.653Z,86.14
2022-10-17T22:25:30.006Z,86.07
2022-10-17T22:35:33.083Z,86.45
2022-10-17T22:45:37.386Z,87.43
2022-10-17T22:55:40.289Z,87.61
2022-10-17T23:05:45.075Z,87.20
2022-10-17T23:15:51.620Z,88.13
2022-10-17T23:25:56.360Z,88.33
2022-10-17T23:35:59.404Z,88.72
2022-10-17T23:46:04.817Z,89.68
2022-10-17T23:56:09.409Z,89.24
